createdAt,value
2023-01-23T00:03:16.298Z,19.58
2023-01-23T00:06:18.979Z,19.02
2023-01-23T00:09:20.257Z,21.85
2023-01-23T00:12:23.443Z,21.80
2023-01-23T00:15:26.037Z,20.85
2023-01-23T00:18:28.867Z,20.85
2023-01-23T00:21:31.613Z,20.30
2023-01-23T00:24:32.901Z,17.63
2023-01-23T00:27:36.284Z,19.80
2023-01-23T00:30:38.937Z,19.77
2023-01-23T00:33:41.825Z,17.58
2023-01-23T00:36:46.039Z,21.08
2023-01-23T00:39:50.167Z,20.92
2023-01-23T00:42:54.371Z,21.87
2023-01-23T00:45:57.299Z,19.80
2023-01-23T00:48:58.595Z,18.42
2023-01-23T00:52:01.113Z,21.92
2023-01-23T00:55:02.647Z,19.20
2023-01-23T00:58:05.927Z,18.77
2023-01-23T01:01:08.692Z,20.90
2023-01-23T01:04:10.048Z,19.15
2023-01-23T01:07:12.620Z,19.55
2023-01-23T01:10:14.740Z,20.48
2023-01-23T01:13:21.764Z,20.83
2023-01-23T01:16:25.244Z,21.90
2023-01-23T01:19:27.532Z,22.17
2023-01-23T01:22:30.105Z,19.40
2023-01-23T01:25:31.416Z,19.63
2023-01-23T01:28:36.327Z,21.07
2023-01-23T01:31:37.697Z,18.40
2023-01-23T01:34:40.308Z,19.75
2023-01-23T01:37:41.839Z,21.20
2023-01-23T01:40:44.426Z,21.08
2023-01-23T01:43:47.631Z,20.77
2023-01-23T01:46:49.868Z,21.77
2023-01-23T01:49:56.866Z,23.55
2023-01-23T01:52:59.506Z,22.02
2023-01-23T01:56:02.373Z,21.98
2023-01-23T01:59:06.989Z,21.27
2023-01-23T02:02:11.893Z,22.25
2023-01-23T02:05:18.974Z,19.50
2023-01-23T02:08:25.575Z,19.85
2023-01-23T02:11:26.911Z,20.73
2023-01-23T02:14:30.157Z,19.90
2023-01-23T02:17:33.348Z,19.58
2023-01-23T02:20:36.039Z,19.88
2023-01-23T02:23:51.307Z,20.52
2023-01-23T02:26:54.490Z,20.92
2023-01-23T02:29:55.804Z,24.17
2023-01-23T02:33:09.233Z,23.50
2023-01-23T02:36:11.917Z,21.58
2023-01-23T02:39:16.365Z,22.88
2023-01-23T02:42:19.495Z,21.88
2023-01-23T02:45:21.999Z,22.47
2023-01-23T02:48:23.556Z,26.70
2023-01-23T02:51:26.170Z,24.67
2023-01-23T02:54:27.544Z,23.15
2023-01-23T02:57:30.757Z,24.05
2023-01-23T03:00:31.797Z,23.23
2023-01-23T03:06:55.729Z,21.20
2023-01-23T03:09:57.036Z,24.40
2023-01-23T03:13:03.836Z,22.30
2023-01-23T03:16:07.457Z,21.27
2023-01-23T03:19:10.344Z,22.15
2023-01-23T03:22:13.054Z,23.40
2023-01-23T03:25:14.761Z,25.63
2023-01-23T03:28:32.545Z,20.55
2023-01-23T03:31:35.211Z,21.13
2023-01-23T03:34:36.575Z,21.80
2023-01-23T03:37:39.244Z,23.75
2023-01-23T03:40:58.789Z,21.02
2023-01-23T03:44:02.117Z,22.50
2023-01-23T03:47:03.822Z,24.30
2023-01-23T03:50:08.175Z,22.33
2023-01-23T03:53:10.758Z,20.85
2023-01-23T03:56:12.041Z,24.48
2023-01-23T03:59:15.574Z,22.15
2023-01-23T04:02:17.099Z,21.97
2023-01-23T04:12:00.690Z,21.58
2023-01-23T04:15:04.068Z,22.02
2023-01-23T04:18:06.809Z,22.13
2023-01-23T04:21:08.351Z,20.23
2023-01-23T04:24:10.889Z,22.35
2023-01-23T04:27:12.200Z,25.63
2023-01-23T04:33:37.346Z,24.73
2023-01-23T04:36:38.748Z,22.00
2023-01-23T04:39:41.416Z,23.45
2023-01-23T04:42:42.767Z,23.00
2023-01-23T04:45:46.178Z,25.40
2023-01-23T04:48:48.892Z,23.40
2023-01-23T04:51:51.563Z,24.50
2023-01-23T04:54:52.909Z,22.93
2023-01-23T04:57:55.494Z,24.67
2023-01-23T05:01:02.556Z,25.67
2023-01-23T05:04:04.722Z,22.65
2023-01-23T05:07:06.306Z,20.00
2023-01-23T05:10:09.331Z,26.80
2023-01-23T05:13:11.893Z,23.55
2023-01-23T05:16:14.034Z,23.15
2023-01-23T05:19:15.502Z,21.77
2023-01-23T05:22:17.595Z,20.13
2023-01-23T05:25:20.849Z,25.20
2023-01-23T05:28:22.184Z,24.23
2023-01-23T05:31:25.508Z,21.83
2023-01-23T05:34:26.977Z,25.02
2023-01-23T05:37:28.315Z,27.57
2023-01-23T05:40:29.729Z,21.30
2023-01-23T05:43:32.280Z,23.73
2023-01-23T05:46:34.277Z,24.63
2023-01-23T05:49:37.037Z,21.38
2023-01-23T05:55:59.365Z,22.03
2023-01-23T05:59:01.928Z,20.25
2023-01-23T06:02:04.207Z,23.85
2023-01-23T06:05:07.836Z,22.67
2023-01-23T06:08:09.155Z,26.27
2023-01-23T06:11:11.693Z,23.80
2023-01-23T06:14:13.012Z,22.77
2023-01-23T06:17:15.330Z,24.17
2023-01-23T06:20:18.583Z,23.45
2023-01-23T06:23:20.310Z,23.37
2023-01-23T06:26:22.866Z,25.03
2023-01-23T06:29:25.457Z,23.10
2023-01-23T06:32:27.436Z,25.80
2023-01-23T06:35:29.279Z,23.45
2023-01-23T06:38:30.956Z,24.73
2023-01-23T06:41:33.856Z,23.83
2023-01-23T06:44:35.655Z,26.98
2023-01-23T06:47:39.016Z,26.35
2023-01-23T06:50:42.307Z,22.15
2023-01-23T06:53:43.601Z,23.97
2023-01-23T06:56:46.158Z,22.30
2023-01-23T06:59:47.468Z,23.15
2023-01-23T07:02:49.677Z,23.23
2023-01-23T07:05:51.526Z,25.10
2023-01-23T07:08:54.147Z,23.77
2023-01-23T07:11:56.879Z,23.13
2023-01-23T07:14:58.276Z,26.55
2023-01-23T07:18:01.758Z,28.83
2023-01-23T07:21:05.055Z,23.98
2023-01-23T07:24:06.748Z,23.97
2023-01-23T07:27:08.144Z,24.33
2023-01-23T07:30:11.785Z,24.23
2023-01-23T07:33:14.175Z,26.58
2023-01-23T07:36:17.723Z,26.90
2023-01-23T07:39:19.116Z,23.47
2023-01-23T07:42:21.780Z,25.40
2023-01-23T07:45:23.119Z,24.13
2023-01-23T07:48:26.385Z,23.75
2023-01-23T07:51:28.958Z,22.17
2023-01-23T07:54:30.462Z,22.63
2023-01-23T07:57:33.228Z,23.37
2023-01-23T08:00:34.712Z,22.67
2023-01-23T08:03:38.061Z,23.38
2023-01-23T08:06:39.421Z,23.50
2023-01-23T08:09:40.905Z,28.47
2023-01-23T08:12:42.225Z,21.83
2023-01-23T08:15:43.585Z,25.80
2023-01-23T08:18:45.669Z,22.92
2023-01-23T08:21:47.001Z,22.27
2023-01-23T08:28:10.474Z,23.30
2023-01-23T08:31:13.272Z,23.42
2023-01-23T08:34:16.681Z,25.60
2023-01-23T08:37:17.995Z,24.05
2023-01-23T08:40:20.254Z,21.10
2023-01-23T08:43:23.071Z,25.30
2023-01-23T08:46:24.363Z,24.50
2023-01-23T08:49:27.751Z,23.95
2023-01-23T08:52:29.037Z,24.60
2023-01-23T08:55:31.911Z,24.63
2023-01-23T08:58:33.812Z,26.67
2023-01-23T09:01:35.233Z,23.40
2023-01-23T09:04:37.822Z,23.42
2023-01-23T09:07:40.138Z,22.07
2023-01-23T09:10:42.780Z,23.30
2023-01-23T09:13:46.752Z,21.92
2023-01-23T09:16:48.058Z,20.27
2023-01-23T09:19:51.591Z,24.08
2023-01-23T09:22:52.911Z,24.90
2023-01-23T09:25:55.514Z,24.58
2023-01-23T09:28:56.804Z,25.55
2023-01-23T09:31:59.424Z,23.83
2023-01-23T09:35:01.401Z,23.38
2023-01-23T09:38:06.315Z,20.60
2023-01-23T09:41:11.436Z,23.67
2023-01-23T09:44:20.069Z,22.60
2023-01-23T09:47:27.328Z,23.80
2023-01-23T09:50:34.043Z,25.13
2023-01-23T09:53:39.047Z,22.35
2023-01-23T09:56:46.037Z,25.58
2023-01-23T10:00:00.203Z,22.02
2023-01-23T10:03:11.587Z,23.17
2023-01-23T10:06:22.332Z,23.55
2023-01-23T10:09:41.211Z,25.17
2023-01-23T10:12:56.186Z,26.33
2023-01-23T10:16:10.159Z,24.23
2023-01-23T10:19:25.690Z,22.53
2023-01-23T10:22:41.050Z,23.08
2023-01-23T10:25:44.258Z,26.20
2023-01-23T10:28:47.627Z,22.40
2023-01-23T10:31:53.581Z,26.27
2023-01-23T10:35:04.201Z,23.80
2023-01-23T10:38:18.018Z,23.63
2023-01-23T10:41:23.058Z,24.63
2023-01-23T10:44:26.040Z,24.42
2023-01-23T10:47:34.528Z,23.25
2023-01-23T10:50:39.996Z,24.63
2023-01-23T10:53:42.003Z,25.55
2023-01-23T10:56:52.369Z,23.20
2023-01-23T10:59:56.818Z,24.95
2023-01-23T11:03:24.277Z,25.10
2023-01-23T11:06:27.480Z,26.50
2023-01-23T11:09:30.625Z,24.48
2023-01-23T11:12:34.161Z,26.88
2023-01-23T11:15:40.115Z,24.90
2023-01-23T11:18:45.851Z,24.63
2023-01-23T11:21:55.222Z,21.70
2023-01-23T11:24:58.708Z,23.80
2023-01-23T11:28:02.229Z,26.30
2023-01-23T11:31:14.484Z,21.73
2023-01-23T11:34:19.833Z,23.50
2023-01-23T11:37:27.842Z,22.80
2023-01-23T11:40:30.255Z,25.25
2023-01-23T11:43:31.651Z,24.55
2023-01-23T11:47:06.314Z,23.85
2023-01-23T11:50:28.636Z,21.85
2023-01-23T11:53:42.875Z,24.50
2023-01-23T11:57:01.869Z,24.40
2023-01-23T12:00:20.569Z,21.90
2023-01-23T12:03:51.401Z,24.48
2023-01-23T12:07:18.211Z,22.73
2023-01-23T12:10:27.160Z,22.90
2023-01-23T12:14:00.443Z,24.25
2023-01-23T12:17:23.349Z,20.52
2023-01-23T12:20:38.736Z,23.85
2023-01-23T12:23:55.777Z,24.88
2023-01-23T12:27:02.121Z,26.13
2023-01-23T12:30:28.448Z,24.60
2023-01-23T12:33:47.435Z,24.92
2023-01-23T12:37:16.821Z,22.35
2023-01-23T12:40:36.661Z,22.40
2023-01-23T12:43:47.815Z,22.00
2023-01-23T12:46:54.853Z,22.75
2023-01-23T12:50:00.536Z,24.23
2023-01-23T12:53:06.776Z,21.77
2023-01-23T12:56:13.527Z,20.45
2023-01-23T12:59:23.915Z,22.90
2023-01-23T13:02:39.786Z,22.63
2023-01-23T13:05:53.168Z,20.63
2023-01-23T13:09:16.752Z,23.23
2023-01-23T13:12:22.489Z,19.98
2023-01-23T13:15:39.872Z,20.03
2023-01-23T13:19:08.938Z,20.30
2023-01-23T13:22:29.939Z,20.40
2023-01-23T13:25:38.652Z,21.52
2023-01-23T13:28:46.240Z,21.77
2023-01-23T13:31:52.225Z,19.23
2023-01-23T13:34:54.807Z,21.40
2023-01-23T13:38:00.059Z,20.38
2023-01-23T13:41:30.226Z,18.80
2023-01-23T13:44:42.092Z,18.35
2023-01-23T14:29:38.451Z,16.20
2023-01-23T14:36:02.759Z,18.90
2023-01-23T14:39:05.297Z,17.08
2023-01-23T14:42:11.653Z,20.10
2023-01-23T14:45:15.768Z,17.77
2023-01-23T14:48:19.965Z,16.17
2023-01-23T14:51:24.072Z,15.32
2023-01-23T14:54:32.576Z,16.58
2023-01-23T14:57:36.186Z,17.30
2023-01-23T15:00:46.281Z,18.80
2023-01-23T15:03:57.417Z,16.88
2023-01-23T15:07:01.160Z,15.40
2023-01-23T15:10:03.043Z,18.58
2023-01-23T15:13:10.532Z,18.77
2023-01-23T15:16:18.792Z,20.40
2023-01-23T15:19:23.434Z,19.05
2023-01-23T15:22:26.396Z,17.05
2023-01-23T15:28:52.000Z,19.17
2023-01-23T15:31:56.403Z,16.95
2023-01-23T15:34:58.391Z,17.95
2023-01-23T15:38:04.083Z,17.60
2023-01-23T15:41:09.512Z,16.75
2023-01-23T15:44:16.512Z,19.03
2023-01-23T15:47:19.093Z,19.42
2023-01-23T15:50:20.500Z,17.45
2023-01-23T15:53:23.362Z,17.05
2023-01-23T15:56:29.212Z,16.10
2023-01-23T15:59:34.571Z,16.93
2023-01-23T16:05:57.885Z,15.50
2023-01-23T16:09:05.773Z,16.10
2023-01-23T16:12:16.371Z,14.63
2023-01-23T16:15:20.783Z,14.00
2023-01-23T16:18:24.913Z,15.82
2023-01-23T16:21:31.281Z,16.67
2023-01-23T16:24:38.524Z,17.30
2023-01-23T16:27:40.460Z,15.88
2023-01-23T16:30:44.796Z,18.13
2023-01-23T16:33:46.351Z,20.00
2023-01-23T16:36:49.379Z,20.58
2023-01-23T16:39:50.691Z,20.30
2023-01-23T16:42:54.699Z,17.65
2023-01-23T16:45:57.032Z,17.90
2023-01-23T16:48:59.799Z,15.60
2023-01-23T16:52:01.357Z,19.67
2023-01-23T16:55:06.950Z,20.77
2023-01-23T16:58:16.487Z,22.08
2023-01-23T17:01:23.152Z,18.53
2023-01-23T17:04:24.543Z,20.80
2023-01-23T17:07:26.813Z,19.45
2023-01-23T17:10:41.198Z,17.20
2023-01-23T17:13:47.512Z,20.65
2023-01-23T17:16:53.024Z,19.73
2023-01-23T17:19:54.733Z,17.63
2023-01-23T17:22:59.925Z,16.00
2023-01-23T17:26:01.968Z,18.33
2023-01-23T17:29:03.429Z,20.15
2023-01-23T17:32:07.130Z,22.67
2023-01-23T17:35:20.186Z,19.90
2023-01-23T17:38:24.701Z,19.53
2023-01-23T17:41:26.437Z,19.57
2023-01-23T17:44:27.775Z,20.33
2023-01-23T17:47:32.288Z,20.20
2023-01-23T17:50:33.658Z,22.05
2023-01-23T17:53:35.755Z,21.30
2023-01-23T17:56:37.330Z,20.83
2023-01-23T17:59:40.162Z,18.52
2023-01-23T18:02:45.188Z,18.77
2023-01-23T18:05:46.768Z,17.45
2023-01-23T18:08:48.368Z,17.87
2023-01-23T18:11:52.263Z,18.17
2023-01-23T18:15:03.177Z,19.48
2023-01-23T18:18:19.609Z,18.25
2023-01-23T18:21:24.163Z,19.02
2023-01-23T18:24:29.450Z,19.10
2023-01-23T18:27:35.887Z,17.23
2023-01-23T18:30:47.720Z,16.98
2023-01-23T18:34:04.292Z,18.27
2023-01-23T18:37:20.482Z,18.65
2023-01-23T18:40:26.669Z,18.97
2023-01-23T18:43:38.945Z,16.20
2023-01-23T18:46:42.128Z,20.17
2023-01-23T18:49:44.595Z,22.05
2023-01-23T18:52:53.733Z,17.77
2023-01-23T18:56:11.112Z,17.03
2023-01-23T18:59:23.258Z,18.53
2023-01-23T19:02:31.167Z,16.73
2023-01-23T19:05:34.076Z,17.60
2023-01-23T19:08:35.689Z,19.20
2023-01-23T19:12:00.359Z,17.27
2023-01-23T19:15:10.746Z,17.47
2023-01-23T19:18:40.107Z,16.65
2023-01-23T19:21:45.645Z,20.08
2023-01-23T19:24:47.541Z,19.00
2023-01-23T19:27:52.027Z,18.57
2023-01-23T19:30:55.160Z,18.00
2023-01-23T19:33:59.052Z,20.58
2023-01-23T19:37:01.109Z,18.10
2023-01-23T19:40:03.921Z,18.50
2023-01-23T19:43:14.345Z,18.23
2023-01-23T19:46:17.386Z,16.30
2023-01-23T19:49:19.961Z,20.02
2023-01-23T19:52:22.200Z,19.52
2023-01-23T19:55:26.746Z,17.63
2023-01-23T20:01:53.237Z,20.63
2023-01-23T20:04:56.883Z,17.45
2023-01-23T20:08:01.508Z,16.83
2023-01-23T20:11:02.920Z,18.02
2023-01-23T20:14:04.304Z,18.97
2023-01-23T20:17:06.855Z,20.50
2023-01-23T20:20:10.537Z,17.95
2023-01-23T20:23:15.451Z,16.27
2023-01-23T20:26:18.507Z,18.60
2023-01-23T20:29:20.791Z,18.87
2023-01-23T20:32:22.241Z,21.50
2023-01-23T20:35:31.466Z,20.17
2023-01-23T20:38:34.177Z,16.52
2023-01-23T20:41:36.161Z,18.27
2023-01-23T20:44:39.026Z,20.60
2023-01-23T20:47:40.595Z,20.73
2023-01-23T20:50:43.190Z,20.85
2023-01-23T20:53:45.555Z,18.85
2023-01-23T20:56:48.097Z,18.02
2023-01-23T20:59:49.551Z,18.30
2023-01-23T21:02:52.603Z,22.93
2023-01-23T21:05:55.454Z,19.05
2023-01-23T21:08:58.569Z,18.92
2023-01-23T21:12:01.337Z,21.92
2023-01-23T21:15:04.386Z,18.13
2023-01-23T21:18:05.635Z,20.27
2023-01-23T21:21:11.078Z,18.13
2023-01-23T21:24:13.401Z,16.52
2023-01-23T21:27:15.983Z,18.90
2023-01-23T21:30:18.053Z,17.97
2023-01-23T21:33:20.699Z,20.27
2023-01-23T21:36:25.449Z,17.75
2023-01-23T21:39:27.627Z,19.35
2023-01-23T21:42:30.262Z,20.70
2023-01-23T21:45:34.239Z,18.33
2023-01-23T21:48:37.371Z,20.27
2023-01-23T21:51:38.763Z,16.95
2023-01-23T21:54:43.200Z,18.70
2023-01-23T21:57:44.786Z,18.02
2023-01-23T22:01:05.901Z,16.37
2023-01-23T22:04:10.954Z,18.07
2023-01-23T22:07:12.266Z,16.65
2023-01-23T22:10:16.511Z,17.65
2023-01-23T22:13:17.819Z,15.85
2023-01-23T22:16:22.903Z,20.13
2023-01-23T22:19:31.004Z,19.83
2023-01-23T22:22:32.337Z,18.88
2023-01-23T22:25:35.601Z,18.23
2023-01-23T22:28:38.115Z,18.50
2023-01-23T22:31:40.873Z,15.80
2023-01-23T22:34:42.322Z,19.77
2023-01-23T22:37:45.070Z,19.38
2023-01-23T22:40:57.219Z,19.02
2023-01-23T22:44:00.020Z,19.75
2023-01-23T22:47:02.203Z,19.30
2023-01-23T22:50:05.226Z,22.53
2023-01-23T22:53:06.643Z,22.08
2023-01-23T22:56:10.818Z,24.33
2023-01-23T22:59:12.254Z,22.80
2023-01-23T23:02:15.561Z,20.60
2023-01-23T23:05:17.055Z,21.27
2023-01-23T23:08:19.671Z,22.23
2023-01-23T23:11:24.375Z,22.20
2023-01-23T23:14:25.704Z,20.50
2023-01-23T23:17:30.438Z,25.93
2023-01-23T23:20:32.184Z,22.37
2023-01-23T23:23:35.338Z,21.63
2023-01-23T23:26:37.333Z,20.33
2023-01-23T23:29:40.118Z,23.23
2023-01-23T23:32:41.625Z,21.77
2023-01-23T23:35:45.042Z,23.50
2023-01-23T23:38:46.406Z,22.42
2023-01-23T23:41:49.898Z,21.10
2023-01-23T23:44:51.623Z,19.93
2023-01-23T23:47:55.612Z,22.37
2023-01-23T23:50:59.804Z,20.10
2023-01-23T23:54:02.481Z,23.77
2023-01-23T23:57:05.791Z,21.25
